Time;durP1;ratioP1;P1;durP2;ratioP2;P2;SDS_P1;SDS_P2;PMS_P1;PMS_P2;Temp;Humidity;BMP_temperature;BMP_pressure;BME280_temperature;BME280_humidity;BME280_pressure;Samples;Min_cycle;Max_cycle;Signal;HPM_P1;HPM_P2
2021/01/11 00:01:29;;;;;;;23.60;10.20;;;10.80;90.50;;;;;;5091783;28;20383;-70
2021/01/11 00:04:33;;;;;;;23.17;10.05;;;10.80;90.90;;;;;;5091319;28;20043;-71
2021/01/11 00:07:39;;;;;;;18.80;10.20;;;10.80;90.80;;;;;;5091853;28;20079;-70
2021/01/11 00:10:44;;;;;;;14.05;8.02;;;10.80;90.80;;;;;;5091858;28;20043;-70
2021/01/11 00:13:49;;;;;;;15.43;8.00;;;10.70;90.80;;;;;;5092139;28;20063;-70
2021/01/11 00:16:53;;;;;;;13.77;7.90;;;10.70;90.60;;;;;;5091874;28;20047;-70
2021/01/11 00:19:57;;;;;;;15.48;8.70;;;10.70;90.60;;;;;;5091820;28;20038;-69
2021/01/11 00:23:01;;;;;;;17.48;7.63;;;10.80;90.30;;;;;;5091476;28;20047;-69
2021/01/11 00:26:04;;;;;;;15.38;9.27;;;10.80;90.20;;;;;;5092057;28;20055;-70
2021/01/11 00:29:08;;;;;;;15.80;9.30;;;10.80;90.60;;;;;;5092021;28;20514;-70
2021/01/11 00:32:12;;;;;;;19.38;9.75;;;10.70;90.70;;;;;;5091800;28;20039;-70
2021/01/11 00:35:16;;;;;;;16.30;9.32;;;10.70;90.70;;;;;;5091670;28;20035;-70
2021/01/11 00:38:21;;;;;;;20.67;10.00;;;10.80;90.60;;;;;;5090859;28;20051;-69
2021/01/11 00:41:24;;;;;;;18.35;8.73;;;10.70;90.40;;;;;;5091324;28;20062;-69
2021/01/11 00:44:29;;;;;;;18.38;8.90;;;10.70;90.40;;;;;;5091397;28;20043;-69
2021/01/11 00:47:38;;;;;;;15.85;8.63;;;10.70;90.40;;;;;;5092119;28;20407;-70
2021/01/11 00:50:42;;;;;;;15.13;8.85;;;10.70;90.40;;;;;;5095525;28;20055;-70
2021/01/11 00:53:47;;;;;;;17.08;9.85;;;10.70;90.20;;;;;;5094883;28;20502;-70
2021/01/11 00:56:52;;;;;;;19.50;10.57;;;10.70;90.40;;;;;;5094412;28;20039;-69
2021/01/11 01:00:17;;;;;;;17.70;9.73;;;10.70;90.70;;;;;;5095082;28;20047;-68
2021/01/11 01:03:30;;;;;;;20.02;9.73;;;10.60;90.70;;;;;;5095604;28;20055;-69
2021/01/11 01:06:34;;;;;;;17.80;8.85;;;10.60;90.90;;;;;;5095387;28;20518;-70
2021/01/11 01:09:38;;;;;;;17.67;9.63;;;10.60;90.50;;;;;;5094776;28;20051;-70
2021/01/11 01:12:42;;;;;;;14.88;9.02;;;10.60;90.50;;;;;;5095590;28;20047;-69
2021/01/11 01:15:46;;;;;;;15.18;8.07;;;10.70;90.20;;;;;;5095242;28;20399;-71
2021/01/11 01:18:50;;;;;;;17.70;8.82;;;10.70;90.00;;;;;;5095427;28;20063;-70
2021/01/11 01:21:57;;;;;;;19.15;8.93;;;10.70;90.10;;;;;;5095079;28;20398;-69
2021/01/11 01:25:00;;;;;;;16.05;8.60;;;10.70;89.80;;;;;;5094824;28;20051;-69
2021/01/11 01:28:06;;;;;;;18.23;8.43;;;10.70;89.90;;;;;;5094658;28;20055;-70
2021/01/11 01:31:10;;;;;;;16.30;7.40;;;10.70;89.70;;;;;;5094170;28;20043;-70
2021/01/11 01:34:14;;;;;;;16.58;7.40;;;10.70;89.90;;;;;;5095239;28;20043;-70
2021/01/11 01:37:19;;;;;;;21.35;7.90;;;10.60;90.10;;;;;;5094599;28;20407;-70
2021/01/11 01:40:24;;;;;;;14.82;7.13;;;10.60;90.30;;;;;;5094948;28;20055;-70
2021/01/11 01:43:29;;;;;;;14.05;7.20;;;10.60;90.50;;;;;;5094453;28;20082;-70
2021/01/11 01:46:34;;;;;;;15.30;7.68;;;10.60;90.40;;;;;;5094833;28;20490;-69
2021/01/11 01:49:39;;;;;;;22.67;8.73;;;10.50;90.10;;;;;;5094212;28;20055;-69
2021/01/11 01:52:44;;;;;;;13.52;7.93;;;10.50;90.40;;;;;;5094362;28;20051;-70
2021/01/11 01:55:49;;;;;;;13.80;7.50;;;10.50;90.30;;;;;;5094601;28;20043;-70
2021/01/11 01:58:55;;;;;;;17.80;8.23;;;10.50;90.30;;;;;;5093552;28;20038;-71
2021/01/11 02:02:00;;;;;;;14.07;8.25;;;10.60;90.40;;;;;;5094745;28;20043;-71
2021/01/11 02:05:07;;;;;;;13.70;8.50;;;10.60;90.40;;;;;;5094326;28;20043;-70
2021/01/11 02:08:47;;;;;;;14.68;8.30;;;10.60;90.50;;;;;;5093887;28;20376;-70
2021/01/11 02:12:05;;;;;;;12.55;8.00;;;10.70;90.70;;;;;;5093413;28;20395;-70
2021/01/11 02:15:16;;;;;;;42.78;37.28;;;10.70;90.60;;;;;;5093558;28;20047;-69
2021/01/11 02:18:48;;;;;;;17.08;14.23;;;10.70;90.50;;;;;;5093464;28;20589;-70
2021/01/11 02:22:29;;;;;;;11.93;9.00;;;10.60;90.60;;;;;;5093347;28;20047;-70
2021/01/11 02:25:53;;;;;;;16.35;6.10;;;10.60;90.80;;;;;;5093705;28;20526;-70
2021/01/11 02:29:18;;;;;;;13.85;5.90;;;10.60;90.10;;;;;;5092625;28;20077;-70
2021/01/11 02:32:23;;;;;;;12.05;5.75;;;10.60;89.80;;;;;;5093670;28;20043;-69
2021/01/11 02:35:29;;;;;;;9.73;5.80;;;10.60;89.80;;;;;;5094027;28;20410;-71
2021/01/11 02:38:37;;;;;;;13.77;6.70;;;10.60;90.30;;;;;;5093514;28;20047;-70
2021/01/11 02:41:41;;;;;;;12.00;5.88;;;10.50;90.50;;;;;;5093663;28;20403;-70
2021/01/11 02:44:48;;;;;;;6.95;5.18;;;10.50;90.20;;;;;;5093882;28;20514;-70
2021/01/11 02:48:21;;;;;;;10.23;6.00;;;10.50;90.70;;;;;;5093790;28;20050;-70
2021/01/11 02:51:52;;;;;;;10.45;5.15;;;10.40;90.50;;;;;;5093710;28;20043;-69
2021/01/11 02:55:05;;;;;;;9.00;5.55;;;10.40;90.30;;;;;;5093525;28;20035;-70
2021/01/11 02:58:25;;;;;;;10.50;5.68;;;10.30;90.40;;;;;;5092496;28;20047;-69
2021/01/11 03:01:37;;;;;;;8.80;6.03;;;10.30;90.60;;;;;;5093163;28;20051;-70
2021/01/11 03:04:42;;;;;;;11.18;6.03;;;10.30;90.70;;;;;;5092831;28;20039;-70
2021/01/11 03:07:56;;;;;;;17.38;6.05;;;10.30;90.90;;;;;;5092018;28;20035;-70
2021/01/11 03:11:00;;;;;;;11.43;5.28;;;10.40;91.00;;;;;;5091834;28;20042;-69
2021/01/11 03:14:04;;;;;;;9.65;5.57;;;10.40;91.20;;;;;;5091891;28;20039;-69
2021/01/11 03:17:08;;;;;;;8.30;5.07;;;10.40;90.80;;;;;;5092706;28;20534;-69
2021/01/11 03:20:13;;;;;;;13.18;5.70;;;10.40;90.50;;;;;;5092752;28;20032;-69
2021/01/11 03:23:18;;;;;;;9.10;5.32;;;10.40;90.80;;;;;;5092113;28;20419;-69
2021/01/11 03:26:23;;;;;;;10.05;5.82;;;10.40;90.50;;;;;;5092498;28;20612;-70
2021/01/11 03:29:28;;;;;;;12.30;6.03;;;10.40;90.50;;;;;;5092185;28;20047;-69
2021/01/11 03:32:32;;;;;;;10.70;6.47;;;10.40;90.10;;;;;;5091531;28;20047;-69
2021/01/11 03:35:36;;;;;;;11.13;5.95;;;10.40;90.30;;;;;;5091713;28;20503;-69
2021/01/11 03:38:42;;;;;;;9.65;6.65;;;10.40;90.00;;;;;;5092293;28;20070;-69
2021/01/11 03:41:48;;;;;;;10.18;5.97;;;10.30;90.30;;;;;;5091056;28;20043;-69
2021/01/11 03:44:52;;;;;;;9.27;6.20;;;10.20;90.50;;;;;;5092262;28;20047;-69
2021/01/11 03:47:56;;;;;;;11.43;6.55;;;10.20;90.90;;;;;;5091719;28;20043;-69
2021/01/11 03:51:01;;;;;;;9.65;6.00;;;10.10;91.00;;;;;;5091784;28;20511;-69
2021/01/11 03:54:05;;;;;;;12.20;6.35;;;10.10;91.10;;;;;;5090961;28;20028;-69
2021/01/11 03:57:09;;;;;;;14.32;6.28;;;10.10;91.40;;;;;;5091989;28;20047;-69
2021/01/11 04:00:13;;;;;;;10.93;6.45;;;10.10;91.30;;;;;;5091510;28;20055;-69
2021/01/11 04:03:18;;;;;;;15.50;7.40;;;10.20;91.30;;;;;;5090816;28;20063;-69
2021/01/11 04:06:22;;;;;;;19.73;6.78;;;10.20;90.80;;;;;;5091570;28;20039;-69
2021/01/11 04:09:26;;;;;;;14.10;5.65;;;10.20;90.80;;;;;;5091464;28;20411;-69
2021/01/11 04:12:30;;;;;;;7.72;5.53;;;10.20;90.80;;;;;;5091749;28;20070;-69
2021/01/11 04:15:35;;;;;;;10.30;5.53;;;10.20;90.90;;;;;;5091993;28;20041;-70
2021/01/11 04:18:38;;;;;;;9.52;5.45;;;10.20;90.70;;;;;;5091263;28;20049;-70
2021/01/11 04:21:43;;;;;;;15.80;5.38;;;10.20;90.90;;;;;;5091128;28;20044;-70
2021/01/11 04:24:46;;;;;;;8.38;4.70;;;10.30;90.70;;;;;;5091647;28;20101;-70
2021/01/11 04:27:56;;;;;;;15.18;5.10;;;10.30;90.60;;;;;;5091115;28;20028;-70
2021/01/11 04:31:01;;;;;;;8.48;4.82;;;10.40;90.60;;;;;;5090310;28;20051;-70
2021/01/11 04:34:05;;;;;;;7.28;5.47;;;10.40;90.70;;;;;;5091373;28;20051;-70
2021/01/11 04:37:10;;;;;;;14.40;4.75;;;10.50;90.00;;;;;;5091033;28;20403;-70
2021/01/11 04:40:14;;;;;;;8.98;4.22;;;10.50;89.70;;;;;;5091052;28;20050;-70
2021/01/11 04:43:19;;;;;;;7.28;4.68;;;10.60;89.30;;;;;;5091202;28;20036;-69
2021/01/11 04:46:23;;;;;;;9.70;4.38;;;10.70;90.00;;;;;;5090168;28;20526;-70
2021/01/11 04:49:28;;;;;;;11.93;5.47;;;10.70;88.90;;;;;;5091020;28;20055;-70
2021/01/11 04:52:33;;;;;;;11.90;5.38;;;10.70;90.10;;;;;;5091001;28;20502;-69
2021/01/11 04:55:38;;;;;;;9.13;4.70;;;10.70;90.80;;;;;;5091328;28;20147;-70
2021/01/11 04:58:54;;;;;;;11.18;4.25;;;10.70;89.60;;;;;;5090706;28;20032;-70
2021/01/11 05:02:00;;;;;;;10.48;3.90;;;10.70;89.10;;;;;;5091400;28;20507;-70
2021/01/11 05:05:05;;;;;;;10.75;3.95;;;10.70;89.20;;;;;;5090975;28;20051;-70
2021/01/11 05:08:09;;;;;;;9.65;4.85;;;10.80;88.80;;;;;;5090787;28;20506;-70
2021/01/11 05:11:13;;;;;;;9.25;5.82;;;10.90;89.20;;;;;;5091053;28;20039;-69
2021/01/11 05:14:17;;;;;;;13.73;7.13;;;10.90;90.20;;;;;;5090114;28;20032;-69
2021/01/11 05:17:23;;;;;;;11.68;7.57;;;10.90;90.30;;;;;;5091042;28;20047;-69
2021/01/11 05:20:30;;;;;;;15.88;7.72;;;10.80;90.40;;;;;;5090992;28;20043;-69
2021/01/11 05:23:36;;;;;;;13.30;7.97;;;10.70;90.40;;;;;;5090639;28;20043;-69
2021/01/11 05:26:40;;;;;;;16.70;7.82;;;10.50;90.80;;;;;;5090568;28;20043;-70
2021/01/11 05:29:44;;;;;;;14.32;8.23;;;10.40;91.10;;;;;;5090664;28;20395;-69
2021/01/11 05:32:48;;;;;;;15.70;8.43;;;10.40;91.10;;;;;;5090152;28;20048;-70
2021/01/11 05:36:10;;;;;;;15.55;8.40;;;10.30;91.40;;;;;;5094380;28;20043;-69
2021/01/11 05:39:14;;;;;;;11.00;8.25;;;10.30;91.50;;;;;;5094367;28;20063;-70
2021/01/11 05:42:21;;;;;;;14.23;9.10;;;10.30;91.30;;;;;;5094412;28;20067;-70
2021/01/11 05:45:29;;;;;;;17.58;8.65;;;10.30;91.30;;;;;;5094607;28;20043;-70
2021/01/11 05:48:36;;;;;;;15.48;8.93;;;10.30;91.30;;;;;;5094349;28;20403;-70
2021/01/11 05:51:40;;;;;;;14.35;9.43;;;10.20;91.20;;;;;;5094402;28;20051;-70
2021/01/11 05:54:44;;;;;;;17.73;8.85;;;10.20;91.30;;;;;;5094626;28;20039;-70
2021/01/11 05:58:00;;;;;;;10.10;6.47;;;10.20;91.40;;;;;;5094055;28;20506;-70
2021/01/11 06:01:04;;;;;;;11.32;5.38;;;10.20;90.80;;;;;;5093923;28;20051;-69
2021/01/11 06:04:08;;;;;;;8.27;4.13;;;10.20;89.20;;;;;;5093999;28;20509;-69
2021/01/11 06:07:14;;;;;;;8.02;4.53;;;10.20;88.60;;;;;;5093733;28;20040;-69
2021/01/11 06:10:22;;;;;;;10.40;4.10;;;10.30;88.40;;;;;;5093206;28;20411;-70
2021/01/11 06:13:27;;;;;;;7.70;4.07;;;10.30;87.70;;;;;;5094271;28;20039;-71
2021/01/11 06:16:31;;;;;;;13.90;4.57;;;10.40;87.80;;;;;;5094039;28;20048;-69
2021/01/11 06:19:35;;;;;;;10.05;4.10;;;10.40;87.60;;;;;;5094302;28;20046;-70
2021/01/11 06:22:45;;;;;;;7.13;3.88;;;10.50;87.10;;;;;;5094215;28;20066;-70
2021/01/11 06:25:49;;;;;;;7.38;4.20;;;10.50;87.00;;;;;;5093776;28;20055;-69
2021/01/11 06:28:54;;;;;;;6.47;3.72;;;10.50;86.40;;;;;;5092875;28;20058;-70
2021/01/11 06:32:23;;;;;;;6.65;4.45;;;10.40;85.80;;;;;;5093261;28;20045;-63
2021/01/11 06:35:43;;;;;;;5.55;3.97;;;10.50;86.80;;;;;;5093457;28;20373;-62
2021/01/11 06:38:48;;;;;;;6.15;4.55;;;10.60;85.70;;;;;;5093034;28;20368;-63
2021/01/11 06:41:52;;;;;;;9.50;4.50;;;10.60;86.00;;;;;;5092509;28;20055;-63
2021/01/11 06:44:56;;;;;;;7.38;4.68;;;10.60;85.80;;;;;;5093429;28;20036;-64
2021/01/11 06:48:16;;;;;;;6.10;4.55;;;10.60;86.30;;;;;;5093317;28;20493;-68
2021/01/11 06:51:42;;;;;;;6.75;3.95;;;10.60;87.20;;;;;;5093771;28;20043;-69
2021/01/11 06:54:46;;;;;;;8.07;4.70;;;10.60;86.20;;;;;;5093301;28;20040;-68
2021/01/11 06:57:56;;;;;;;8.20;5.10;;;10.60;86.10;;;;;;5093259;28;20039;-68
2021/01/11 07:01:08;;;;;;;11.52;5.07;;;10.60;86.00;;;;;;5092192;28;20035;-68
2021/01/11 07:04:36;;;;;;;11.18;4.78;;;10.60;86.00;;;;;;5092850;28;20039;-68
2021/01/11 07:07:40;;;;;;;12.23;4.38;;;10.70;86.20;;;;;;5092236;28;20051;-68
2021/01/11 07:10:45;;;;;;;6.82;4.65;;;10.70;86.30;;;;;;5093003;28;20526;-69
2021/01/11 07:13:51;;;;;;;12.00;4.85;;;10.70;86.20;;;;;;5092992;28;20028;-69
2021/01/11 07:16:56;;;;;;;7.20;5.25;;;10.80;85.90;;;;;;5093439;28;20500;-69
2021/01/11 07:20:00;;;;;;;7.15;4.68;;;10.80;85.90;;;;;;5092656;28;20376;-68
2021/01/11 07:23:05;;;;;;;9.63;4.82;;;10.80;85.70;;;;;;5092410;28;20050;-69
2021/01/11 07:26:28;;;;;;;7.82;4.68;;;10.80;85.80;;;;;;5093831;28;20652;-69
2021/01/11 07:29:33;;;;;;;8.15;5.00;;;10.80;85.30;;;;;;5092484;28;20411;-72
2021/01/11 07:32:36;;;;;;;7.03;4.70;;;10.80;84.90;;;;;;5093274;28;20032;-70
2021/01/11 07:35:40;;;;;;;6.10;4.18;;;10.80;84.60;;;;;;5093543;28;20032;-71
2021/01/11 07:38:45;;;;;;;6.72;4.00;;;10.80;85.10;;;;;;5093519;28;20047;-68
2021/01/11 07:41:53;;;;;;;8.20;4.80;;;10.80;84.70;;;;;;5092406;28;20036;-72
2021/01/11 07:45:08;;;;;;;8.55;4.90;;;10.80;84.20;;;;;;5092944;28;20035;-70
2021/01/11 07:48:21;;;;;;;8.63;5.25;;;10.80;83.20;;;;;;5093501;28;20044;-73
2021/01/11 07:51:25;;;;;;;9.98;4.90;;;10.80;83.90;;;;;;5095724;28;20047;-73
2021/01/11 07:54:30;;;;;;;7.80;5.20;;;10.70;83.70;;;;;;5093092;28;20036;-72
2021/01/11 07:57:35;;;;;;;7.88;4.97;;;10.70;84.00;;;;;;5092062;28;20035;-73
2021/01/11 08:00:39;;;;;;;12.80;5.20;;;10.80;84.40;;;;;;5092510;28;20040;-70
2021/01/11 08:03:43;;;;;;;10.68;5.70;;;10.80;84.90;;;;;;5092207;28;20237;-70
2021/01/11 08:06:52;;;;;;;12.63;6.97;;;10.90;85.60;;;;;;5092333;28;20114;-70
2021/01/11 08:09:57;;;;;;;21.42;8.35;;;10.90;86.10;;;;;;5093842;28;20054;-72
2021/01/11 08:13:08;;;;;;;12.15;6.93;;;10.90;86.50;;;;;;5093219;28;20380;-71
2021/01/11 08:16:14;;;;;;;21.50;8.45;;;10.80;87.30;;;;;;5093045;28;20055;-71
2021/01/11 08:19:21;;;;;;;17.73;7.75;;;10.80;87.60;;;;;;5093924;28;20043;-70
2021/01/11 08:22:28;;;;;;;14.10;7.05;;;10.80;87.40;;;;;;5093271;28;20055;-71
2021/01/11 08:25:33;;;;;;;15.68;6.90;;;10.80;87.40;;;;;;5092296;28;20047;-69
2021/01/11 08:28:38;;;;;;;17.05;7.65;;;10.80;87.20;;;;;;5093270;28;20590;-72
2021/01/11 08:31:44;;;;;;;10.88;7.15;;;10.80;87.60;;;;;;5093598;28;20426;-70
2021/01/11 08:34:48;;;;;;;22.60;7.30;;;10.90;88.30;;;;;;5092921;28;20039;-70
2021/01/11 08:38:00;;;;;;;14.50;7.57;;;10.90;87.90;;;;;;5090753;28;20055;-71
2021/01/11 08:41:11;;;;;;;;;;;11.00;88.40;;;;;;5092576;28;20047;-71
2021/01/11 08:44:34;;;;;;;30.90;10.25;;;11.10;88.80;;;;;;5092253;28;19930;-71
2021/01/11 08:47:38;;;;;;;17.00;7.47;;;11.10;89.10;;;;;;5092389;28;20047;-69
2021/01/11 08:51:03;;;;;;;17.55;7.38;;;11.10;88.20;;;;;;5092904;28;20055;-71
2021/01/11 08:54:07;;;;;;;21.77;7.72;;;11.10;88.40;;;;;;5092300;28;20643;-69
2021/01/11 08:57:14;;;;;;;12.95;7.22;;;11.10;87.40;;;;;;5092248;28;20502;-69
2021/01/11 09:00:18;;;;;;;12.98;6.53;;;11.10;86.70;;;;;;5092380;28;20058;-69
2021/01/11 09:03:41;;;;;;;12.77;7.32;;;11.10;86.20;;;;;;5091833;28;20063;-69
2021/01/11 09:06:45;;;;;;;20.17;7.78;;;11.20;86.10;;;;;;5090807;28;20047;-69
2021/01/11 09:09:49;;;;;;;14.07;7.60;;;11.30;86.30;;;;;;5094441;28;20055;-71
2021/01/11 09:12:53;;;;;;;19.75;8.38;;;11.40;85.30;;;;;;5096481;28;20043;-71
2021/01/11 09:16:11;;;;;;;11.55;7.85;;;11.50;84.40;;;;;;5096310;28;20047;-71
2021/01/11 09:19:17;;;;;;;18.80;7.63;;;11.50;84.70;;;;;;5095665;28;20039;-70
2021/01/11 09:22:35;;;;;;;20.77;13.07;;;11.50;83.40;;;;;;5096272;28;20043;-71
2021/01/11 09:25:39;;;;;;;25.00;9.40;;;11.60;84.60;;;;;;5094964;28;20035;-70
2021/01/11 09:28:43;;;;;;;15.07;7.90;;;11.70;84.80;;;;;;5095703;28;20498;-70
2021/01/11 09:31:48;;;;;;;9.15;5.75;;;11.80;84.60;;;;;;5094981;28;20058;-70
2021/01/11 09:34:53;;;;;;;6.32;3.65;;;11.90;83.10;;;;;;5094029;28;20039;-70
2021/01/11 09:37:57;;;;;;;11.20;3.80;;;12.00;80.30;;;;;;5095319;28;20068;-69
2021/01/11 09:41:01;;;;;;;7.13;4.20;;;12.00;79.30;;;;;;5094969;28;20375;-70
2021/01/11 09:44:05;;;;;;;7.97;3.80;;;12.00;79.40;;;;;;5095950;28;20503;-71
2021/01/11 09:47:09;;;;;;;6.85;4.10;;;12.10;78.40;;;;;;5095146;28;20050;-71
2021/01/11 09:50:16;;;;;;;6.32;4.15;;;12.10;79.00;;;;;;5095026;28;20048;-72
2021/01/11 09:53:20;;;;;;;8.15;4.30;;;12.40;78.00;;;;;;5096528;28;20036;-70
2021/01/11 09:56:24;;;;;;;8.45;4.43;;;12.60;77.10;;;;;;5095833;28;20032;-70
2021/01/11 09:59:28;;;;;;;9.65;4.97;;;13.00;74.70;;;;;;5096335;28;20028;-69
2021/01/11 10:02:34;;;;;;;8.73;4.45;;;13.40;73.90;;;;;;5094784;28;20051;-68
2021/01/11 10:05:39;;;;;;;9.30;5.53;;;13.60;72.30;;;;;;5095224;28;20041;-69
2021/01/11 10:08:43;;;;;;;8.98;5.10;;;13.70;71.10;;;;;;5095107;28;20380;-70
2021/01/11 10:11:58;;;;;;;8.73;6.00;;;13.80;71.20;;;;;;5095242;28;20047;-69
2021/01/11 10:15:05;;;;;;;10.63;6.40;;;13.80;70.20;;;;;;5095700;28;20590;-70
2021/01/11 10:18:10;;;;;;;8.35;5.00;;;13.80;71.10;;;;;;5095854;28;20150;-70
2021/01/11 10:21:14;;;;;;;8.77;5.45;;;13.60;72.30;;;;;;5092926;28;20028;-70
2021/01/11 10:24:20;;;;;;;8.60;5.93;;;13.60;72.40;;;;;;5094718;28;20048;-69
2021/01/11 10:27:24;;;;;;;7.72;5.43;;;13.50;72.50;;;;;;5093923;28;20047;-69
2021/01/11 10:30:29;;;;;;;11.35;5.97;;;13.50;73.00;;;;;;5093452;28;20051;-69
2021/01/11 10:33:33;;;;;;;8.20;5.85;;;13.30;72.80;;;;;;5095479;28;20043;-70
2021/01/11 10:36:39;;;;;;;18.48;6.05;;;13.20;74.40;;;;;;5094853;28;20062;-71
2021/01/11 10:39:47;;;;;;;15.07;6.95;;;13.20;75.10;;;;;;5094145;28;20043;-70
2021/01/11 10:42:53;;;;;;;13.70;6.97;;;13.20;74.70;;;;;;5092834;28;20039;-70
2021/01/11 10:45:59;;;;;;;14.20;5.55;;;13.10;74.40;;;;;;5094903;28;20043;-69
2021/01/11 10:49:04;;;;;;;11.32;6.18;;;13.10;74.90;;;;;;5093724;28;20051;-68
2021/01/11 10:52:08;;;;;;;9.52;6.03;;;13.00;75.80;;;;;;5095283;28;20107;-70
2021/01/11 10:55:15;;;;;;;10.98;5.38;;;12.90;76.20;;;;;;5093693;28;20028;-69
2021/01/11 10:58:20;;;;;;;11.20;4.90;;;12.90;76.70;;;;;;5093357;28;20114;-70
2021/01/11 11:01:26;;;;;;;12.80;5.28;;;13.00;76.90;;;;;;5092862;28;20624;-70
2021/01/11 11:04:30;;;;;;;9.40;4.82;;;13.00;76.70;;;;;;5093289;28;20055;-70
2021/01/11 11:07:38;;;;;;;13.15;5.43;;;13.10;76.40;;;;;;5093607;28;20035;-68
2021/01/11 11:10:42;;;;;;;12.48;5.45;;;13.10;76.30;;;;;;5093511;28;20058;-70
2021/01/11 11:13:46;;;;;;;6.63;4.60;;;13.10;75.80;;;;;;5093730;28;20042;-70
2021/01/11 11:16:53;;;;;;;11.00;5.03;;;13.20;76.50;;;;;;5093425;28;20046;-71
2021/01/11 11:19:58;;;;;;;12.02;5.00;;;13.30;77.00;;;;;;5094909;28;20047;-72
2021/01/11 11:23:03;;;;;;;12.43;5.63;;;13.40;77.40;;;;;;5069573;28;20058;-71
2021/01/11 11:26:08;;;;;;;7.15;4.90;;;13.50;77.10;;;;;;5093937;28;20058;-68
2021/01/11 11:29:13;;;;;;;13.95;6.03;;;13.60;77.50;;;;;;5094106;28;20051;-71
2021/01/11 11:32:17;;;;;;;13.93;6.80;;;13.60;78.60;;;;;;5093752;28;20051;-70
2021/01/11 11:35:22;;;;;;;13.15;7.13;;;13.70;80.20;;;;;;5093826;28;20047;-69
2021/01/11 11:38:27;;;;;;;10.65;6.45;;;13.80;80.10;;;;;;5094229;28;20055;-70
2021/01/11 11:41:31;;;;;;;13.90;7.40;;;13.80;80.30;;;;;;5093935;28;20051;-69
2021/01/11 11:44:36;;;;;;;11.35;7.50;;;13.80;79.80;;;;;;5093363;28;20039;-70
2021/01/11 11:47:42;;;;;;;14.80;7.50;;;13.80;79.50;;;;;;5092306;28;20051;-68
2021/01/11 11:50:46;;;;;;;17.73;8.10;;;13.80;78.50;;;;;;5094019;28;20403;-70
2021/01/11 11:53:51;;;;;;;10.57;7.30;;;13.80;79.60;;;;;;5092696;28;20043;-68
2021/01/11 11:56:55;;;;;;;10.93;6.97;;;13.80;79.70;;;;;;5092614;28;20067;-68
2021/01/11 11:59:59;;;;;;;10.75;7.75;;;13.80;79.00;;;;;;5092920;28;20383;-68
2021/01/11 12:03:03;;;;;;;17.17;7.10;;;13.90;79.00;;;;;;5092179;28;20035;-67
2021/01/11 12:06:08;;;;;;;14.25;7.38;;;13.90;77.70;;;;;;5093511;28;20043;-67
2021/01/11 12:09:12;;;;;;;20.92;15.65;;;14.00;78.00;;;;;;5080763;28;20051;-71
2021/01/11 12:12:16;;;;;;;21.10;12.63;;;14.10;88.70;;;;;;5092683;28;20038;-71
2021/01/11 12:15:21;;;;;;;14.10;8.07;;;14.10;80.20;;;;;;5090865;28;20062;-69
2021/01/11 12:18:25;;;;;;;9.82;6.70;;;14.20;77.90;;;;;;5081463;28;20043;-69
2021/01/11 12:21:30;;;;;;;13.55;9.77;;;14.20;76.50;;;;;;5092622;28;20032;-68
2021/01/11 12:24:35;;;;;;;32.78;20.02;;;14.20;77.70;;;;;;5092212;28;20043;-68
2021/01/11 12:27:39;;;;;;;14.05;10.30;;;14.30;79.70;;;;;;5094159;28;20043;-68
2021/01/11 12:30:44;;;;;;;12.23;7.18;;;14.30;77.80;;;;;;5091543;28;20518;-68
2021/01/11 12:33:50;;;;;;;10.25;6.53;;;14.40;77.70;;;;;;5090296;28;20043;-67
2021/01/11 12:36:54;;;;;;;11.48;8.00;;;14.30;77.30;;;;;;5091165;28;20059;-67
2021/01/11 12:39:58;;;;;;;10.40;6.63;;;14.20;77.30;;;;;;5093168;28;20047;-69
2021/01/11 12:43:02;;;;;;;16.48;7.75;;;14.10;76.10;;;;;;5093127;28;20043;-69
2021/01/11 12:46:13;;;;;;;12.02;8.25;;;13.90;76.20;;;;;;5096719;28;20039;-68
2021/01/11 12:49:17;;;;;;;16.45;8.00;;;13.80;76.90;;;;;;5097717;28;20043;-70
2021/01/11 12:52:21;;;;;;;52.55;32.92;;;13.70;76.50;;;;;;5096876;28;20050;-70
2021/01/11 12:55:25;;;;;;;19.33;10.40;;;13.80;92.90;;;;;;5097626;28;20107;-68
2021/01/11 12:58:29;;;;;;;14.70;7.75;;;13.80;80.30;;;;;;5097106;28;20047;-69
2021/01/11 13:01:34;;;;;;;12.73;7.72;;;13.80;79.60;;;;;;5096252;28;20398;-67
2021/01/11 13:04:37;;;;;;;18.73;8.52;;;13.70;79.10;;;;;;5097884;28;20047;-68
2021/01/11 13:07:42;;;;;;;22.55;8.45;;;13.70;78.70;;;;;;5095598;28;20407;-69
2021/01/11 13:10:46;;;;;;;17.25;8.40;;;13.60;77.10;;;;;;5097681;28;20051;-67
2021/01/11 13:13:53;;;;;;;17.40;9.70;;;13.50;76.80;;;;;;5095090;28;20043;-68
2021/01/11 13:16:58;;;;;;;26.63;11.70;;;13.50;77.70;;;;;;5094996;28;20058;-68
2021/01/11 13:20:02;;;;;;;62.55;50.70;;;13.50;79.00;;;;;;5095390;28;20590;-69
2021/01/11 13:23:08;;;;;;;21.17;11.18;;;13.50;81.00;;;;;;5095257;28;20043;-69
2021/01/11 13:26:19;;;;;;;21.67;9.77;;;13.60;79.90;;;;;;5095248;28;20035;-69
2021/01/11 13:29:23;;;;;;;14.85;8.40;;;13.60;80.00;;;;;;5096057;28;20518;-70
2021/01/11 13:32:27;;;;;;;20.40;8.77;;;13.70;79.20;;;;;;5096178;28;20047;-70
2021/01/11 13:35:31;;;;;;;17.35;8.25;;;13.60;80.00;;;;;;5095682;28;20043;-70
2021/01/11 13:38:36;;;;;;;22.40;10.02;;;13.60;79.00;;;;;;5095635;28;20403;-68
2021/01/11 13:41:43;;;;;;;18.88;9.88;;;13.50;79.40;;;;;;5096402;28;20043;-69
2021/01/11 13:45:07;;;;;;;17.98;11.20;;;13.50;78.00;;;;;;5096841;28;20494;-69
2021/01/11 13:48:12;;;;;;;19.63;10.30;;;13.40;79.00;;;;;;5096080;28;20047;-69
2021/01/11 13:51:16;;;;;;;15.93;10.30;;;13.40;79.00;;;;;;5096179;28;20059;-68
2021/01/11 13:54:22;;;;;;;21.02;10.13;;;13.30;79.50;;;;;;5095002;28;20122;-68
2021/01/11 13:57:26;;;;;;;13.25;8.50;;;13.30;79.10;;;;;;5095185;28;20043;-69
2021/01/11 14:00:31;;;;;;;12.82;8.07;;;13.30;78.40;;;;;;5095416;28;20062;-71
2021/01/11 14:03:35;;;;;;;16.83;8.73;;;13.30;78.00;;;;;;5094797;28;20043;-70
2021/01/11 14:06:39;;;;;;;18.95;8.20;;;13.30;78.20;;;;;;5095917;28;20036;-69
2021/01/11 14:09:45;;;;;;;16.05;9.65;;;13.30;77.50;;;;;;5095351;28;20036;-71
2021/01/11 14:12:49;;;;;;;21.20;9.50;;;13.30;78.00;;;;;;5095709;28;20063;-69
2021/01/11 14:15:53;;;;;;;15.68;8.80;;;13.30;78.80;;;;;;5094708;28;20372;-69
2021/01/11 14:19:00;;;;;;;11.43;7.47;;;13.30;78.40;;;;;;5095388;28;20518;-68
2021/01/11 14:22:04;;;;;;;13.23;8.18;;;13.20;78.60;;;;;;5096275;28;20141;-70
2021/01/11 14:25:09;;;;;;;23.50;11.10;;;13.20;78.70;;;;;;5094476;28;20066;-71
2021/01/11 14:28:14;;;;;;;44.95;28.77;;;13.20;78.80;;;;;;5096021;28;20051;-74
2021/01/11 14:31:17;;;;;;;24.67;14.23;;;13.10;79.50;;;;;;5094557;28;20051;-70
2021/01/11 14:34:23;;;;;;;24.48;11.43;;;13.10;78.10;;;;;;5094407;28;20051;-70
2021/01/11 14:37:27;;;;;;;38.80;27.60;;;13.00;78.80;;;;;;5094255;28;20411;-71
2021/01/11 14:40:31;;;;;;;23.00;14.18;;;13.00;80.30;;;;;;5094048;28;20047;-71
2021/01/11 14:43:37;;;;;;;19.80;11.77;;;13.10;80.00;;;;;;5092442;28;20059;-68
2021/01/11 14:46:42;;;;;;;16.13;10.52;;;13.10;78.70;;;;;;5093232;28;20495;-69
2021/01/11 14:49:46;;;;;;;17.00;11.02;;;13.20;77.40;;;;;;5093274;28;20039;-69
2021/01/11 14:52:58;;;;;;;16.48;11.52;;;13.20;75.80;;;;;;5092414;28;20043;-69
2021/01/11 14:56:13;;;;;;;16.23;11.00;;;13.00;74.80;;;;;;5092558;28;20391;-69
2021/01/11 14:59:18;;;;;;;23.92;14.32;;;12.90;75.50;;;;;;5093609;28;20057;-69
2021/01/11 15:02:22;;;;;;;26.92;15.65;;;12.80;76.20;;;;;;5093566;28;20043;-70
2021/01/11 15:05:26;;;;;;;23.23;16.42;;;12.80;77.10;;;;;;5093205;28;20043;-69
2021/01/11 15:08:31;;;;;;;32.65;18.25;;;12.80;77.40;;;;;;5092429;28;20516;-69
2021/01/11 15:11:36;;;;;;;36.70;20.77;;;12.70;75.70;;;;;;5093441;28;20063;-69
2021/01/11 15:14:40;;;;;;;36.47;20.50;;;12.60;76.80;;;;;;5093011;28;20039;-69
2021/01/11 15:17:44;;;;;;;28.70;18.73;;;12.60;77.50;;;;;;5093244;28;20039;-69
2021/01/11 15:20:51;;;;;;;26.15;16.13;;;12.60;78.10;;;;;;5093295;28;20075;-69
2021/01/11 15:23:55;;;;;;;28.20;15.63;;;12.50;76.70;;;;;;5094002;28;20062;-69
2021/01/11 15:27:00;;;;;;;27.42;18.75;;;12.50;77.00;;;;;;5094087;28;20039;-69
2021/01/11 15:30:06;;;;;;;27.10;16.75;;;12.50;77.60;;;;;;5093602;28;20055;-72
2021/01/11 15:33:11;;;;;;;28.20;18.90;;;12.50;77.30;;;;;;5092035;28;20039;-71
2021/01/11 15:36:30;;;;;;;34.33;19.30;;;12.50;78.30;;;;;;5092368;28;20059;-68
2021/01/11 15:39:34;;;;;;;27.75;18.85;;;12.40;77.10;;;;;;5093336;28;20047;-69
2021/01/11 15:42:50;;;;;;;31.30;20.33;;;12.40;77.70;;;;;;5091511;28;20039;-70
2021/01/11 15:45:56;;;;;;;32.30;20.30;;;12.30;78.10;;;;;;5092246;28;20055;-69
2021/01/11 15:49:00;;;;;;;32.08;18.02;;;12.20;79.20;;;;;;5092076;28;20047;-69
2021/01/11 15:52:05;;;;;;;32.35;18.95;;;12.20;79.60;;;;;;5091764;28;20059;-69
2021/01/11 15:55:10;;;;;;;27.63;17.90;;;12.20;79.70;;;;;;5091637;28;20520;-70
2021/01/11 15:58:14;;;;;;;39.75;24.88;;;12.20;80.00;;;;;;5092444;28;20066;-70
2021/01/11 16:01:19;;;;;;;27.48;18.30;;;12.20;78.90;;;;;;5092091;28;20419;-69